KSJT/SJT METAR and TAF weather

Enter ICAO airport designator
Station Type Date Time Source
KSJT METAR 2019/08/25 06:51 UTC NOAA

KSJT 250651Z AUTO 17006KT 10SM CLR 24/21 A2993 RMK AO2 SLP109 T02390211


Station Type Date Time Source
KSJT Decoded METAR 2019/08/25 06:51 UTC NOAA

Station name not available
Aug 25, 2019 - 02:51 AM EDT / 2019.08.25 0651 UTC
Wind: from the S (170 degrees) at 7 MPH (6 KT):0
Visibility: 10 mile(s):0
Sky conditions: clear
Temperature: 75.0 F (23.9 C)
Dew Point: 70.0 F (21.1 C)
Relative Humidity: 84%
Pressure (altimeter): 29.93 in. Hg (1013 hPa)
ob: KSJT 250651Z AUTO 17006KT 10SM CLR 24/21 A2993 RMK AO2 SLP109 T02390211
cycle: 7

Station Type Date Time Source
KSJT TAF 2019/08/25 06:22 UTC NOAA

TAF KSJT 250520Z 2506/2606 13006KT P6SM SKC
FM250900 20005KT P6SM SKC
FM251600 20009KT P6SM SKC

Example: see airport list